sensor_id;sensor_type;location;lat;lon;timestamp;P1;durP1;ratioP1;P2;durP2;ratioP2
19374;SDS011;9823;50.936;4.046;2022-08-21T00:00:11;8.50;;;2.10;;
19374;SDS011;9823;50.936;4.046;2022-08-21T00:02:43;9.97;;;2.73;;
19374;SDS011;9823;50.936;4.046;2022-08-21T00:05:09;10.17;;;2.20;;
19374;SDS011;9823;50.936;4.046;2022-08-21T00:07:35;8.40;;;2.23;;
19374;SDS011;9823;50.936;4.046;2022-08-21T00:10:02;7.73;;;2.13;;
19374;SDS011;9823;50.936;4.046;2022-08-21T00:12:28;11.77;;;2.57;;
19374;SDS011;9823;50.936;4.046;2022-08-21T00:14:56;9.50;;;2.80;;
19374;SDS011;9823;50.936;4.046;2022-08-21T00:17:24;9.63;;;2.43;;
19374;SDS011;9823;50.936;4.046;2022-08-21T00:19:53;7.83;;;2.37;;
19374;SDS011;9823;50.936;4.046;2022-08-21T00:22:19;8.63;;;2.40;;
19374;SDS011;9823;50.936;4.046;2022-08-21T00:24:45;8.37;;;2.37;;
19374;SDS011;9823;50.936;4.046;2022-08-21T00:27:11;8.17;;;2.10;;
19374;SDS011;9823;50.936;4.046;2022-08-21T00:29:37;10.47;;;2.60;;
19374;SDS011;9823;50.936;4.046;2022-08-21T00:32:03;14.10;;;2.77;;
19374;SDS011;9823;50.936;4.046;2022-08-21T00:34:34;8.50;;;2.73;;
19374;SDS011;9823;50.936;4.046;2022-08-21T00:37:00;10.07;;;2.60;;
19374;SDS011;9823;50.936;4.046;2022-08-21T00:39:26;6.60;;;2.87;;
19374;SDS011;9823;50.936;4.046;2022-08-21T00:41:54;13.20;;;2.63;;
19374;SDS011;9823;50.936;4.046;2022-08-21T00:44:25;10.73;;;2.83;;
19374;SDS011;9823;50.936;4.046;2022-08-21T00:46:56;12.10;;;3.00;;
19374;SDS011;9823;50.936;4.046;2022-08-21T00:49:22;7.63;;;2.83;;
19374;SDS011;9823;50.936;4.046;2022-08-21T00:51:51;6.63;;;2.47;;
19374;SDS011;9823;50.936;4.046;2022-08-21T00:54:20;9.60;;;3.00;;
19374;SDS011;9823;50.936;4.046;2022-08-21T00:56:49;10.43;;;3.00;;
19374;SDS011;9823;50.936;4.046;2022-08-21T00:59:18;8.87;;;3.03;;
19374;SDS011;9823;50.936;4.046;2022-08-21T01:01:47;6.93;;;2.87;;
19374;SDS011;9823;50.936;4.046;2022-08-21T01:04:16;8.27;;;2.53;;
19374;SDS011;9823;50.936;4.046;2022-08-21T01:06:45;12.93;;;2.67;;
19374;SDS011;9823;50.936;4.046;2022-08-21T01:09:14;7.83;;;2.70;;
19374;SDS011;9823;50.936;4.046;2022-08-21T01:11:40;10.53;;;3.03;;
19374;SDS011;9823;50.936;4.046;2022-08-21T01:14:10;11.13;;;2.90;;
19374;SDS011;9823;50.936;4.046;2022-08-21T01:16:40;11.07;;;2.97;;
19374;SDS011;9823;50.936;4.046;2022-08-21T01:19:07;7.07;;;2.67;;
19374;SDS011;9823;50.936;4.046;2022-08-21T01:21:36;7.23;;;2.60;;
19374;SDS011;9823;50.936;4.046;2022-08-21T01:24:02;11.93;;;3.10;;
19374;SDS011;9823;50.936;4.046;2022-08-21T01:26:36;10.40;;;2.67;;
19374;SDS011;9823;50.936;4.046;2022-08-21T01:29:14;7.73;;;2.47;;
19374;SDS011;9823;50.936;4.046;2022-08-21T01:31:42;9.63;;;2.97;;
19374;SDS011;9823;50.936;4.046;2022-08-21T01:34:15;10.53;;;2.83;;
19374;SDS011;9823;50.936;4.046;2022-08-21T01:36:49;12.00;;;3.57;;
19374;SDS011;9823;50.936;4.046;2022-08-21T01:39:18;11.33;;;2.83;;
19374;SDS011;9823;50.936;4.046;2022-08-21T01:41:46;10.97;;;3.07;;
19374;SDS011;9823;50.936;4.046;2022-08-21T01:44:14;7.67;;;3.40;;
19374;SDS011;9823;50.936;4.046;2022-08-21T01:46:43;12.23;;;4.07;;
19374;SDS011;9823;50.936;4.046;2022-08-21T01:49:09;7.80;;;2.73;;
19374;SDS011;9823;50.936;4.046;2022-08-21T01:51:37;10.43;;;2.90;;
19374;SDS011;9823;50.936;4.046;2022-08-21T01:54:03;5.80;;;2.50;;
19374;SDS011;9823;50.936;4.046;2022-08-21T01:56:31;9.13;;;2.80;;
19374;SDS011;9823;50.936;4.046;2022-08-21T01:59:00;8.10;;;2.70;;
19374;SDS011;9823;50.936;4.046;2022-08-21T02:01:29;7.30;;;3.07;;
19374;SDS011;9823;50.936;4.046;2022-08-21T02:03:55;7.63;;;2.90;;
19374;SDS011;9823;50.936;4.046;2022-08-21T02:06:24;8.83;;;3.07;;
19374;SDS011;9823;50.936;4.046;2022-08-21T02:08:52;5.27;;;2.80;;
19374;SDS011;9823;50.936;4.046;2022-08-21T02:11:19;8.93;;;3.43;;
19374;SDS011;9823;50.936;4.046;2022-08-21T02:13:45;7.53;;;3.10;;
19374;SDS011;9823;50.936;4.046;2022-08-21T02:16:11;10.60;;;3.33;;
19374;SDS011;9823;50.936;4.046;2022-08-21T02:18:40;6.33;;;2.67;;
19374;SDS011;9823;50.936;4.046;2022-08-21T02:21:06;9.03;;;3.00;;
19374;SDS011;9823;50.936;4.046;2022-08-21T02:23:33;9.77;;;3.10;;
19374;SDS011;9823;50.936;4.046;2022-08-21T02:26:02;12.70;;;3.00;;
19374;SDS011;9823;50.936;4.046;2022-08-21T02:28:31;12.73;;;3.93;;
19374;SDS011;9823;50.936;4.046;2022-08-21T02:30:57;6.23;;;2.90;;
19374;SDS011;9823;50.936;4.046;2022-08-21T02:33:24;10.07;;;3.23;;
19374;SDS011;9823;50.936;4.046;2022-08-21T02:35:57;11.13;;;3.30;;
19374;SDS011;9823;50.936;4.046;2022-08-21T02:38:29;8.67;;;3.83;;
19374;SDS011;9823;50.936;4.046;2022-08-21T02:40:58;10.87;;;3.10;;
19374;SDS011;9823;50.936;4.046;2022-08-21T02:43:27;7.33;;;2.80;;
19374;SDS011;9823;50.936;4.046;2022-08-21T02:45:56;13.13;;;2.90;;
19374;SDS011;9823;50.936;4.046;2022-08-21T02:48:26;11.20;;;3.20;;
19374;SDS011;9823;50.936;4.046;2022-08-21T02:50:54;9.30;;;3.27;;
19374;SDS011;9823;50.936;4.046;2022-08-21T02:53:23;8.00;;;2.70;;
19374;SDS011;9823;50.936;4.046;2022-08-21T02:55:50;6.40;;;2.83;;
19374;SDS011;9823;50.936;4.046;2022-08-21T02:58:19;7.37;;;2.83;;
19374;SDS011;9823;50.936;4.046;2022-08-21T03:00:46;12.93;;;3.10;;
19374;SDS011;9823;50.936;4.046;2022-08-21T03:03:14;9.53;;;2.87;;
19374;SDS011;9823;50.936;4.046;2022-08-21T03:05:48;11.50;;;3.50;;
19374;SDS011;9823;50.936;4.046;2022-08-21T03:08:17;6.57;;;2.80;;
19374;SDS011;9823;50.936;4.046;2022-08-21T03:10:48;11.23;;;3.07;;
19374;SDS011;9823;50.936;4.046;2022-08-21T03:13:14;8.57;;;2.97;;
19374;SDS011;9823;50.936;4.046;2022-08-21T03:15:43;9.07;;;3.00;;
19374;SDS011;9823;50.936;4.046;2022-08-21T03:18:10;13.03;;;3.23;;
19374;SDS011;9823;50.936;4.046;2022-08-21T03:20:36;11.90;;;3.43;;
19374;SDS011;9823;50.936;4.046;2022-08-21T03:23:03;10.03;;;3.07;;
19374;SDS011;9823;50.936;4.046;2022-08-21T03:25:30;11.83;;;3.00;;
19374;SDS011;9823;50.936;4.046;2022-08-21T03:27:59;10.97;;;3.40;;
19374;SDS011;9823;50.936;4.046;2022-08-21T03:30:25;7.67;;;3.10;;
19374;SDS011;9823;50.936;4.046;2022-08-21T03:32:56;7.83;;;3.20;;
19374;SDS011;9823;50.936;4.046;2022-08-21T03:35:22;9.77;;;3.40;;
19374;SDS011;9823;50.936;4.046;2022-08-21T03:37:51;9.27;;;2.97;;
19374;SDS011;9823;50.936;4.046;2022-08-21T03:40:22;11.93;;;3.60;;
19374;SDS011;9823;50.936;4.046;2022-08-21T03:42:49;9.80;;;3.03;;
19374;SDS011;9823;50.936;4.046;2022-08-21T03:45:16;9.77;;;3.17;;
19374;SDS011;9823;50.936;4.046;2022-08-21T03:47:55;12.43;;;3.43;;
19374;SDS011;9823;50.936;4.046;2022-08-21T03:50:25;11.20;;;3.33;;
19374;SDS011;9823;50.936;4.046;2022-08-21T03:52:54;6.70;;;3.00;;
19374;SDS011;9823;50.936;4.046;2022-08-21T03:55:20;12.53;;;2.97;;
19374;SDS011;9823;50.936;4.046;2022-08-21T03:57:46;7.53;;;3.27;;
19374;SDS011;9823;50.936;4.046;2022-08-21T04:00:15;8.57;;;3.60;;
19374;SDS011;9823;50.936;4.046;2022-08-21T04:02:41;10.50;;;3.53;;
19374;SDS011;9823;50.936;4.046;2022-08-21T04:05:12;6.83;;;3.00;;
19374;SDS011;9823;50.936;4.046;2022-08-21T04:07:41;9.17;;;3.70;;
19374;SDS011;9823;50.936;4.046;2022-08-21T04:10:10;9.23;;;3.37;;
19374;SDS011;9823;50.936;4.046;2022-08-21T04:12:38;11.87;;;3.83;;
19374;SDS011;9823;50.936;4.046;2022-08-21T04:15:07;11.30;;;3.03;;
19374;SDS011;9823;50.936;4.046;2022-08-21T04:17:33;8.70;;;3.50;;
19374;SDS011;9823;50.936;4.046;2022-08-21T04:20:02;9.57;;;3.83;;
19374;SDS011;9823;50.936;4.046;2022-08-21T04:22:30;12.13;;;3.30;;
19374;SDS011;9823;50.936;4.046;2022-08-21T04:24:56;12.40;;;3.57;;
19374;SDS011;9823;50.936;4.046;2022-08-21T04:27:27;11.90;;;3.77;;
19374;SDS011;9823;50.936;4.046;2022-08-21T04:29:53;12.47;;;3.37;;
19374;SDS011;9823;50.936;4.046;2022-08-21T04:32:22;10.80;;;3.53;;
19374;SDS011;9823;50.936;4.046;2022-08-21T04:34:49;9.50;;;3.57;;
19374;SDS011;9823;50.936;4.046;2022-08-21T04:37:17;11.60;;;3.53;;
19374;SDS011;9823;50.936;4.046;2022-08-21T04:39:46;14.03;;;3.77;;
19374;SDS011;9823;50.936;4.046;2022-08-21T04:42:12;10.77;;;3.43;;
19374;SDS011;9823;50.936;4.046;2022-08-21T04:44:38;10.90;;;3.60;;
19374;SDS011;9823;50.936;4.046;2022-08-21T04:47:04;9.87;;;3.43;;
19374;SDS011;9823;50.936;4.046;2022-08-21T04:49:32;11.20;;;3.90;;
19374;SDS011;9823;50.936;4.046;2022-08-21T04:51:59;13.63;;;3.90;;
19374;SDS011;9823;50.936;4.046;2022-08-21T04:54:28;10.03;;;3.50;;
19374;SDS011;9823;50.936;4.046;2022-08-21T04:57:00;9.73;;;3.63;;
19374;SDS011;9823;50.936;4.046;2022-08-21T04:59:33;8.63;;;3.30;;
19374;SDS011;9823;50.936;4.046;2022-08-21T05:02:06;12.77;;;3.70;;
19374;SDS011;9823;50.936;4.046;2022-08-21T05:04:33;9.67;;;3.40;;
19374;SDS011;9823;50.936;4.046;2022-08-21T05:07:00;13.47;;;3.60;;
19374;SDS011;9823;50.936;4.046;2022-08-21T05:09:30;13.40;;;3.57;;
19374;SDS011;9823;50.936;4.046;2022-08-21T05:11:57;13.47;;;3.90;;
19374;SDS011;9823;50.936;4.046;2022-08-21T05:14:23;7.97;;;3.37;;
19374;SDS011;9823;50.936;4.046;2022-08-21T05:16:52;11.10;;;3.73;;
19374;SDS011;9823;50.936;4.046;2022-08-21T05:19:18;11.17;;;3.30;;
19374;SDS011;9823;50.936;4.046;2022-08-21T05:21:46;10.77;;;3.40;;
19374;SDS011;9823;50.936;4.046;2022-08-21T05:24:13;12.10;;;3.70;;
19374;SDS011;9823;50.936;4.046;2022-08-21T05:26:42;11.60;;;3.40;;
19374;SDS011;9823;50.936;4.046;2022-08-21T05:29:09;8.63;;;3.20;;
19374;SDS011;9823;50.936;4.046;2022-08-21T05:31:40;8.87;;;3.20;;
19374;SDS011;9823;50.936;4.046;2022-08-21T05:34:09;10.30;;;3.23;;
19374;SDS011;9823;50.936;4.046;2022-08-21T05:36:35;14.87;;;3.53;;
19374;SDS011;9823;50.936;4.046;2022-08-21T05:39:03;10.60;;;3.77;;
19374;SDS011;9823;50.936;4.046;2022-08-21T05:41:34;10.60;;;3.27;;
19374;SDS011;9823;50.936;4.046;2022-08-21T05:44:00;13.70;;;3.27;;
19374;SDS011;9823;50.936;4.046;2022-08-21T05:46:26;9.53;;;3.27;;
19374;SDS011;9823;50.936;4.046;2022-08-21T05:48:52;10.20;;;3.23;;
19374;SDS011;9823;50.936;4.046;2022-08-21T05:51:22;7.97;;;3.40;;
19374;SDS011;9823;50.936;4.046;2022-08-21T05:53:48;8.97;;;3.13;;
19374;SDS011;9823;50.936;4.046;2022-08-21T05:56:15;11.17;;;3.57;;
19374;SDS011;9823;50.936;4.046;2022-08-21T05:58:43;8.40;;;3.30;;
19374;SDS011;9823;50.936;4.046;2022-08-21T06:01:11;11.83;;;3.13;;
19374;SDS011;9823;50.936;4.046;2022-08-21T06:03:39;10.97;;;3.20;;
19374;SDS011;9823;50.936;4.046;2022-08-21T06:06:08;12.27;;;3.50;;
19374;SDS011;9823;50.936;4.046;2022-08-21T06:08:35;12.50;;;3.40;;
19374;SDS011;9823;50.936;4.046;2022-08-21T06:11:07;10.17;;;3.30;;
19374;SDS011;9823;50.936;4.046;2022-08-21T06:13:36;10.43;;;3.00;;
19374;SDS011;9823;50.936;4.046;2022-08-21T06:16:10;13.47;;;2.60;;
19374;SDS011;9823;50.936;4.046;2022-08-21T06:18:39;11.40;;;3.20;;
19374;SDS011;9823;50.936;4.046;2022-08-21T06:21:08;6.30;;;2.53;;
19374;SDS011;9823;50.936;4.046;2022-08-21T06:23:34;6.93;;;2.40;;
19374;SDS011;9823;50.936;4.046;2022-08-21T06:26:03;8.83;;;2.30;;
19374;SDS011;9823;50.936;4.046;2022-08-21T06:28:30;10.67;;;2.83;;
19374;SDS011;9823;50.936;4.046;2022-08-21T06:31:00;7.37;;;2.37;;
19374;SDS011;9823;50.936;4.046;2022-08-21T06:33:26;6.10;;;1.97;;
19374;SDS011;9823;50.936;4.046;2022-08-21T06:35:55;9.37;;;2.30;;
19374;SDS011;9823;50.936;4.046;2022-08-21T06:38:21;7.23;;;2.13;;
19374;SDS011;9823;50.936;4.046;2022-08-21T06:40:46;6.30;;;1.83;;
19374;SDS011;9823;50.936;4.046;2022-08-21T06:43:14;7.93;;;1.90;;
19374;SDS011;9823;50.936;4.046;2022-08-21T06:45:40;7.50;;;1.80;;
19374;SDS011;9823;50.936;4.046;2022-08-21T06:48:09;9.97;;;2.33;;
19374;SDS011;9823;50.936;4.046;2022-08-21T06:50:35;6.63;;;1.97;;
19374;SDS011;9823;50.936;4.046;2022-08-21T06:53:06;6.30;;;1.87;;
19374;SDS011;9823;50.936;4.046;2022-08-21T06:55:35;8.80;;;2.40;;
19374;SDS011;9823;50.936;4.046;2022-08-21T06:58:03;9.97;;;2.00;;
19374;SDS011;9823;50.936;4.046;2022-08-21T07:00:31;6.50;;;1.93;;
19374;SDS011;9823;50.936;4.046;2022-08-21T07:03:00;10.43;;;2.07;;
19374;SDS011;9823;50.936;4.046;2022-08-21T07:05:27;5.97;;;1.70;;
19374;SDS011;9823;50.936;4.046;2022-08-21T07:07:54;7.63;;;1.90;;
19374;SDS011;9823;50.936;4.046;2022-08-21T07:10:24;6.40;;;1.97;;
19374;SDS011;9823;50.936;4.046;2022-08-21T07:12:50;6.13;;;1.67;;
19374;SDS011;9823;50.936;4.046;2022-08-21T07:15:19;8.97;;;1.90;;
19374;SDS011;9823;50.936;4.046;2022-08-21T07:17:45;7.33;;;1.73;;
19374;SDS011;9823;50.936;4.046;2022-08-21T07:20:11;6.33;;;1.90;;
19374;SDS011;9823;50.936;4.046;2022-08-21T07:22:42;7.27;;;2.07;;
19374;SDS011;9823;50.936;4.046;2022-08-21T07:25:09;8.37;;;2.00;;
19374;SDS011;9823;50.936;4.046;2022-08-21T07:27:35;9.07;;;1.77;;
19374;SDS011;9823;50.936;4.046;2022-08-21T07:30:01;5.97;;;1.73;;
19374;SDS011;9823;50.936;4.046;2022-08-21T07:32:27;9.57;;;1.90;;
19374;SDS011;9823;50.936;4.046;2022-08-21T07:34:54;6.93;;;1.60;;
19374;SDS011;9823;50.936;4.046;2022-08-21T07:37:20;8.47;;;1.87;;
19374;SDS011;9823;50.936;4.046;2022-08-21T07:39:46;8.90;;;1.40;;
19374;SDS011;9823;50.936;4.046;2022-08-21T07:42:14;8.27;;;1.57;;
19374;SDS011;9823;50.936;4.046;2022-08-21T07:44:42;8.90;;;1.90;;
19374;SDS011;9823;50.936;4.046;2022-08-21T07:47:09;6.83;;;1.50;;
19374;SDS011;9823;50.936;4.046;2022-08-21T07:49:44;5.40;;;1.80;;
19374;SDS011;9823;50.936;4.046;2022-08-21T07:52:11;7.53;;;1.80;;
19374;SDS011;9823;50.936;4.046;2022-08-21T07:54:39;10.13;;;1.53;;
19374;SDS011;9823;50.936;4.046;2022-08-21T07:57:07;7.13;;;1.60;;
19374;SDS011;9823;50.936;4.046;2022-08-21T07:59:36;10.20;;;1.67;;
19374;SDS011;9823;50.936;4.046;2022-08-21T08:02:02;9.70;;;2.17;;
19374;SDS011;9823;50.936;4.046;2022-08-21T08:04:28;7.03;;;1.67;;
19374;SDS011;9823;50.936;4.046;2022-08-21T08:06:54;7.60;;;1.97;;
19374;SDS011;9823;50.936;4.046;2022-08-21T08:09:22;9.40;;;1.63;;
19374;SDS011;9823;50.936;4.046;2022-08-21T08:11:48;10.30;;;1.80;;
19374;SDS011;9823;50.936;4.046;2022-08-21T08:14:14;8.70;;;1.87;;
19374;SDS011;9823;50.936;4.046;2022-08-21T08:16:43;8.10;;;1.73;;
19374;SDS011;9823;50.936;4.046;2022-08-21T08:19:12;4.60;;;1.30;;
19374;SDS011;9823;50.936;4.046;2022-08-21T08:21:42;10.17;;;1.93;;
19374;SDS011;9823;50.936;4.046;2022-08-21T08:24:08;5.97;;;2.00;;
19374;SDS011;9823;50.936;4.046;2022-08-21T08:26:36;8.70;;;1.77;;
19374;SDS011;9823;50.936;4.046;2022-08-21T08:29:03;8.33;;;1.77;;
19374;SDS011;9823;50.936;4.046;2022-08-21T08:31:31;8.73;;;1.70;;
19374;SDS011;9823;50.936;4.046;2022-08-21T08:33:58;10.07;;;2.13;;
19374;SDS011;9823;50.936;4.046;2022-08-21T08:36:31;7.63;;;1.93;;
19374;SDS011;9823;50.936;4.046;2022-08-21T08:38:57;8.63;;;1.90;;
19374;SDS011;9823;50.936;4.046;2022-08-21T08:41:23;10.13;;;1.77;;
19374;SDS011;9823;50.936;4.046;2022-08-21T08:43:53;8.17;;;1.70;;
19374;SDS011;9823;50.936;4.046;2022-08-21T08:48:57;6.83;;;1.53;;
19374;SDS011;9823;50.936;4.046;2022-08-21T08:51:44;6.13;;;1.83;;
19374;SDS011;9823;50.936;4.046;2022-08-21T08:54:16;10.20;;;1.70;;
19374;SDS011;9823;50.936;4.046;2022-08-21T08:56:44;6.57;;;1.70;;
19374;SDS011;9823;50.936;4.046;2022-08-21T08:59:18;11.33;;;2.23;;
19374;SDS011;9823;50.936;4.046;2022-08-21T09:01:44;6.13;;;1.37;;
19374;SDS011;9823;50.936;4.046;2022-08-21T09:04:11;7.90;;;1.90;;
19374;SDS011;9823;50.936;4.046;2022-08-21T09:11:41;6.10;;;1.97;;
19374;SDS011;9823;50.936;4.046;2022-08-21T09:19:26;7.27;;;1.73;;
19374;SDS011;9823;50.936;4.046;2022-08-21T09:25:12;8.53;;;2.00;;
19374;SDS011;9823;50.936;4.046;2022-08-21T09:27:40;7.27;;;1.80;;
19374;SDS011;9823;50.936;4.046;2022-08-21T09:30:07;5.93;;;1.67;;
19374;SDS011;9823;50.936;4.046;2022-08-21T09:32:35;10.77;;;2.47;;
19374;SDS011;9823;50.936;4.046;2022-08-21T09:35:06;7.73;;;2.23;;
19374;SDS011;9823;50.936;4.046;2022-08-21T09:37:34;6.97;;;1.87;;
19374;SDS011;9823;50.936;4.046;2022-08-21T09:40:13;6.80;;;2.20;;
19374;SDS011;9823;50.936;4.046;2022-08-21T09:42:52;9.07;;;2.33;;
19374;SDS011;9823;50.936;4.046;2022-08-21T09:45:21;6.40;;;1.77;;
19374;SDS011;9823;50.936;4.046;2022-08-21T09:47:49;7.00;;;1.87;;
19374;SDS011;9823;50.936;4.046;2022-08-21T09:50:17;8.50;;;1.63;;
19374;SDS011;9823;50.936;4.046;2022-08-21T09:52:49;9.70;;;2.00;;
19374;SDS011;9823;50.936;4.046;2022-08-21T09:55:23;6.57;;;1.70;;
19374;SDS011;9823;50.936;4.046;2022-08-21T09:58:11;9.17;;;1.63;;
19374;SDS011;9823;50.936;4.046;2022-08-21T10:00:37;6.53;;;1.70;;
19374;SDS011;9823;50.936;4.046;2022-08-21T10:03:22;8.33;;;2.20;;
19374;SDS011;9823;50.936;4.046;2022-08-21T10:05:57;12.43;;;2.70;;
19374;SDS011;9823;50.936;4.046;2022-08-21T10:08:26;6.53;;;1.90;;
19374;SDS011;9823;50.936;4.046;2022-08-21T10:11:01;8.93;;;1.90;;
19374;SDS011;9823;50.936;4.046;2022-08-21T10:18:27;12.80;;;2.57;;
19374;SDS011;9823;50.936;4.046;2022-08-21T10:21:14;10.37;;;2.67;;
19374;SDS011;9823;50.936;4.046;2022-08-21T10:26:29;10.90;;;1.80;;
19374;SDS011;9823;50.936;4.046;2022-08-21T10:34:11;10.07;;;2.40;;
19374;SDS011;9823;50.936;4.046;2022-08-21T10:36:43;7.43;;;2.43;;
19374;SDS011;9823;50.936;4.046;2022-08-21T10:49:28;9.93;;;1.90;;
19374;SDS011;9823;50.936;4.046;2022-08-21T10:57:31;9.33;;;2.30;;
19374;SDS011;9823;50.936;4.046;2022-08-21T11:00:11;9.30;;;2.30;;
19374;SDS011;9823;50.936;4.046;2022-08-21T11:02:43;10.33;;;2.30;;
19374;SDS011;9823;50.936;4.046;2022-08-21T11:08:11;8.27;;;1.90;;
19374;SDS011;9823;50.936;4.046;2022-08-21T11:13:03;9.43;;;1.97;;
19374;SDS011;9823;50.936;4.046;2022-08-21T11:15:46;9.33;;;1.97;;
19374;SDS011;9823;50.936;4.046;2022-08-21T11:23:45;8.03;;;2.43;;
19374;SDS011;9823;50.936;4.046;2022-08-21T11:26:14;13.17;;;2.73;;
19374;SDS011;9823;50.936;4.046;2022-08-21T11:28:51;9.30;;;2.77;;
19374;SDS011;9823;50.936;4.046;2022-08-21T11:31:34;9.30;;;2.60;;
19374;SDS011;9823;50.936;4.046;2022-08-21T11:34:15;13.87;;;2.20;;
19374;SDS011;9823;50.936;4.046;2022-08-21T11:39:24;10.17;;;2.83;;
19374;SDS011;9823;50.936;4.046;2022-08-21T11:41:57;12.80;;;2.37;;
19374;SDS011;9823;50.936;4.046;2022-08-21T11:47:05;10.67;;;2.17;;
19374;SDS011;9823;50.936;4.046;2022-08-21T11:57:05;7.63;;;1.93;;
19374;SDS011;9823;50.936;4.046;2022-08-21T11:59:40;7.50;;;1.80;;
19374;SDS011;9823;50.936;4.046;2022-08-21T12:02:14;9.97;;;2.10;;
19374;SDS011;9823;50.936;4.046;2022-08-21T12:04:49;8.97;;;1.90;;
19374;SDS011;9823;50.936;4.046;2022-08-21T12:07:28;8.73;;;2.03;;
19374;SDS011;9823;50.936;4.046;2022-08-21T12:09:56;10.07;;;2.20;;
19374;SDS011;9823;50.936;4.046;2022-08-21T12:12:30;9.37;;;1.73;;
19374;SDS011;9823;50.936;4.046;2022-08-21T12:17:35;13.87;;;2.73;;
19374;SDS011;9823;50.936;4.046;2022-08-21T12:23:01;7.03;;;1.77;;
19374;SDS011;9823;50.936;4.046;2022-08-21T12:25:35;7.77;;;2.00;;
19374;SDS011;9823;50.936;4.046;2022-08-21T12:28:02;8.63;;;2.13;;
19374;SDS011;9823;50.936;4.046;2022-08-21T12:30:34;9.07;;;2.07;;
19374;SDS011;9823;50.936;4.046;2022-08-21T12:33:03;8.67;;;2.40;;
19374;SDS011;9823;50.936;4.046;2022-08-21T12:35:36;10.80;;;2.67;;
19374;SDS011;9823;50.936;4.046;2022-08-21T12:38:07;10.30;;;1.67;;
19374;SDS011;9823;50.936;4.046;2022-08-21T12:40:41;10.43;;;1.70;;
19374;SDS011;9823;50.936;4.046;2022-08-21T12:43:12;6.67;;;1.80;;
19374;SDS011;9823;50.936;4.046;2022-08-21T12:45:46;7.97;;;1.87;;
19374;SDS011;9823;50.936;4.046;2022-08-21T12:50:46;10.47;;;2.27;;
19374;SDS011;9823;50.936;4.046;2022-08-21T12:53:18;10.13;;;2.00;;
19374;SDS011;9823;50.936;4.046;2022-08-21T12:55:47;8.83;;;1.80;;
19374;SDS011;9823;50.936;4.046;2022-08-21T12:58:18;6.80;;;2.00;;
19374;SDS011;9823;50.936;4.046;2022-08-21T13:00:47;12.17;;;2.10;;
19374;SDS011;9823;50.936;4.046;2022-08-21T13:03:17;12.70;;;2.63;;
19374;SDS011;9823;50.936;4.046;2022-08-21T13:05:45;9.17;;;2.37;;
19374;SDS011;9823;50.936;4.046;2022-08-21T13:08:12;12.27;;;2.53;;
19374;SDS011;9823;50.936;4.046;2022-08-21T13:10:39;8.67;;;2.43;;
19374;SDS011;9823;50.936;4.046;2022-08-21T13:13:06;9.00;;;1.93;;
19374;SDS011;9823;50.936;4.046;2022-08-21T13:15:36;6.93;;;1.80;;
19374;SDS011;9823;50.936;4.046;2022-08-21T13:18:05;9.27;;;2.43;;
19374;SDS011;9823;50.936;4.046;2022-08-21T13:20:38;7.53;;;1.83;;
19374;SDS011;9823;50.936;4.046;2022-08-21T13:26:18;13.30;;;2.20;;
19374;SDS011;9823;50.936;4.046;2022-08-21T13:28:44;8.33;;;1.80;;
19374;SDS011;9823;50.936;4.046;2022-08-21T13:31:16;12.97;;;2.73;;
19374;SDS011;9823;50.936;4.046;2022-08-21T13:33:42;9.87;;;2.30;;
19374;SDS011;9823;50.936;4.046;2022-08-21T13:36:10;8.40;;;1.90;;
19374;SDS011;9823;50.936;4.046;2022-08-21T13:38:39;11.77;;;2.10;;
19374;SDS011;9823;50.936;4.046;2022-08-21T13:43:45;13.37;;;2.70;;
19374;SDS011;9823;50.936;4.046;2022-08-21T13:46:14;11.13;;;2.30;;
19374;SDS011;9823;50.936;4.046;2022-08-21T13:48:41;11.33;;;2.07;;
19374;SDS011;9823;50.936;4.046;2022-08-21T13:51:10;12.53;;;2.07;;
19374;SDS011;9823;50.936;4.046;2022-08-21T13:53:44;8.90;;;2.13;;
19374;SDS011;9823;50.936;4.046;2022-08-21T13:56:31;8.63;;;2.00;;
19374;SDS011;9823;50.936;4.046;2022-08-21T13:59:02;9.73;;;2.70;;
19374;SDS011;9823;50.936;4.046;2022-08-21T14:01:32;14.03;;;2.47;;
19374;SDS011;9823;50.936;4.046;2022-08-21T14:04:16;9.97;;;1.97;;
19374;SDS011;9823;50.936;4.046;2022-08-21T14:06:44;10.23;;;2.13;;
19374;SDS011;9823;50.936;4.046;2022-08-21T14:11:47;8.00;;;2.20;;
19374;SDS011;9823;50.936;4.046;2022-08-21T14:14:19;10.47;;;2.77;;
19374;SDS011;9823;50.936;4.046;2022-08-21T14:17:02;8.13;;;2.03;;
19374;SDS011;9823;50.936;4.046;2022-08-21T14:19:41;10.73;;;2.47;;
19374;SDS011;9823;50.936;4.046;2022-08-21T14:22:21;8.80;;;2.37;;
19374;SDS011;9823;50.936;4.046;2022-08-21T14:24:47;7.30;;;2.00;;
19374;SDS011;9823;50.936;4.046;2022-08-21T14:27:15;10.40;;;2.30;;
19374;SDS011;9823;50.936;4.046;2022-08-21T14:29:44;7.00;;;1.60;;
19374;SDS011;9823;50.936;4.046;2022-08-21T14:32:13;11.93;;;2.67;;
19374;SDS011;9823;50.936;4.046;2022-08-21T14:34:40;11.20;;;1.90;;
19374;SDS011;9823;50.936;4.046;2022-08-21T14:37:08;9.30;;;2.40;;
19374;SDS011;9823;50.936;4.046;2022-08-21T14:39:37;9.63;;;2.13;;
19374;SDS011;9823;50.936;4.046;2022-08-21T14:42:05;7.87;;;1.97;;
19374;SDS011;9823;50.936;4.046;2022-08-21T14:44:31;6.93;;;1.87;;
19374;SDS011;9823;50.936;4.046;2022-08-21T14:47:00;12.90;;;2.17;;
19374;SDS011;9823;50.936;4.046;2022-08-21T14:49:28;6.63;;;1.87;;
19374;SDS011;9823;50.936;4.046;2022-08-21T14:51:55;12.77;;;2.37;;
19374;SDS011;9823;50.936;4.046;2022-08-21T14:54:26;8.87;;;1.93;;
19374;SDS011;9823;50.936;4.046;2022-08-21T14:56:52;8.90;;;2.13;;
19374;SDS011;9823;50.936;4.046;2022-08-21T14:59:19;11.27;;;2.30;;
19374;SDS011;9823;50.936;4.046;2022-08-21T15:01:46;7.30;;;2.00;;
19374;SDS011;9823;50.936;4.046;2022-08-21T15:04:14;8.50;;;2.10;;
19374;SDS011;9823;50.936;4.046;2022-08-21T15:06:41;12.93;;;2.37;;
19374;SDS011;9823;50.936;4.046;2022-08-21T15:09:09;9.03;;;1.90;;
19374;SDS011;9823;50.936;4.046;2022-08-21T15:11:35;9.97;;;2.50;;
19374;SDS011;9823;50.936;4.046;2022-08-21T15:14:02;12.97;;;2.00;;
19374;SDS011;9823;50.936;4.046;2022-08-21T15:16:29;8.17;;;2.27;;
19374;SDS011;9823;50.936;4.046;2022-08-21T15:19:01;11.43;;;2.40;;
19374;SDS011;9823;50.936;4.046;2022-08-21T15:21:27;7.57;;;2.10;;
19374;SDS011;9823;50.936;4.046;2022-08-21T15:23:57;8.27;;;2.17;;
19374;SDS011;9823;50.936;4.046;2022-08-21T15:26:24;8.70;;;2.03;;
19374;SDS011;9823;50.936;4.046;2022-08-21T15:28:50;8.77;;;2.23;;
19374;SDS011;9823;50.936;4.046;2022-08-21T15:31:16;9.33;;;2.70;;
19374;SDS011;9823;50.936;4.046;2022-08-21T15:33:45;7.80;;;1.90;;
19374;SDS011;9823;50.936;4.046;2022-08-21T15:36:11;14.63;;;2.90;;
19374;SDS011;9823;50.936;4.046;2022-08-21T15:38:39;9.47;;;2.37;;
19374;SDS011;9823;50.936;4.046;2022-08-21T15:41:08;7.77;;;2.20;;
19374;SDS011;9823;50.936;4.046;2022-08-21T15:43:37;8.90;;;1.90;;
19374;SDS011;9823;50.936;4.046;2022-08-21T15:46:06;12.90;;;2.30;;
19374;SDS011;9823;50.936;4.046;2022-08-21T15:48:37;9.43;;;2.10;;
19374;SDS011;9823;50.936;4.046;2022-08-21T15:51:03;8.10;;;2.13;;
19374;SDS011;9823;50.936;4.046;2022-08-21T15:53:29;11.00;;;2.20;;
19374;SDS011;9823;50.936;4.046;2022-08-21T15:55:59;10.60;;;2.47;;
19374;SDS011;9823;50.936;4.046;2022-08-21T15:58:25;9.67;;;2.20;;
19374;SDS011;9823;50.936;4.046;2022-08-21T16:00:52;10.47;;;1.97;;
19374;SDS011;9823;50.936;4.046;2022-08-21T16:03:23;8.77;;;2.30;;
19374;SDS011;9823;50.936;4.046;2022-08-21T16:05:52;12.20;;;2.63;;
19374;SDS011;9823;50.936;4.046;2022-08-21T16:08:25;11.07;;;2.10;;
19374;SDS011;9823;50.936;4.046;2022-08-21T16:10:51;9.63;;;1.93;;
19374;SDS011;9823;50.936;4.046;2022-08-21T16:13:24;10.40;;;2.17;;
19374;SDS011;9823;50.936;4.046;2022-08-21T16:15:53;6.33;;;2.03;;
19374;SDS011;9823;50.936;4.046;2022-08-21T16:18:22;9.40;;;2.30;;
19374;SDS011;9823;50.936;4.046;2022-08-21T16:20:52;11.37;;;2.20;;
19374;SDS011;9823;50.936;4.046;2022-08-21T16:23:19;9.13;;;2.00;;
19374;SDS011;9823;50.936;4.046;2022-08-21T16:25:47;12.87;;;2.33;;
19374;SDS011;9823;50.936;4.046;2022-08-21T16:28:14;8.20;;;2.00;;
19374;SDS011;9823;50.936;4.046;2022-08-21T16:30:44;12.47;;;2.40;;